Time;durP1;ratioP1;P1;durP2;ratioP2;P2;SDS_P1;SDS_P2;PMS_P1;PMS_P2;Temp;Humidity;BMP_temperature;BMP_pressure;BME280_temperature;BME280_humidity;BME280_pressure;Samples;Min_cycle;Max_cycle;Signal;HPM_P1;HPM_P2
2022/05/02 00:00:33;;;;;;;18.30;10.20;;;22.60;56.40;;;;;;215505;1296;24297;-43
2022/05/02 00:05:39;;;;;;;17.00;9.90;;;22.60;56.10;;;;;;215094;1296;24698;-43
2022/05/02 00:10:43;;;;;;;19.30;10.80;;;22.60;56.20;;;;;;215224;1296;22589;-45
2022/05/02 00:15:47;;;;;;;15.70;9.50;;;22.60;57.00;;;;;;215405;1296;22586;-46
2022/05/02 00:20:51;;;;;;;17.80;9.80;;;22.50;56.20;;;;;;215170;1293;24468;-45
2022/05/02 00:25:55;;;;;;;20.90;9.20;;;22.50;56.20;;;;;;215670;1293;22637;-43
2022/05/02 00:30:58;;;;;;;14.70;9.00;;;22.50;56.30;;;;;;215905;1293;22596;-43
2022/05/02 00:36:03;;;;;;;14.10;8.20;;;22.50;56.30;;;;;;215567;1293;22695;-45
2022/05/02 00:41:07;;;;;;;16.20;9.50;;;22.50;56.20;;;;;;215557;1293;24270;-44
2022/05/02 00:46:23;;;;;;;16.20;9.10;;;22.40;56.40;;;;;;215625;1293;22649;-47
2022/05/02 00:51:27;;;;;;;15.10;9.00;;;22.40;56.00;;;;;;215699;1293;22585;-43
2022/05/02 00:56:32;;;;;;;14.00;8.60;;;22.40;56.10;;;;;;215660;1293;22636;-44
2022/05/02 01:01:36;;;;;;;14.40;8.30;;;22.40;56.00;;;;;;215663;1293;24266;-45
2022/05/02 01:12:07;;;;;;;15.70;9.10;;;22.40;55.70;;;;;;215380;1296;25287;-44
2022/05/02 01:17:11;;;;;;;13.10;7.80;;;22.30;56.00;;;;;;215734;1293;22557;-44
2022/05/02 01:22:15;;;;;;;13.80;8.20;;;22.30;55.90;;;;;;215344;1296;22589;-43
2022/05/02 01:27:24;;;;;;;14.80;8.60;;;22.30;56.00;;;;;;215347;1296;25276;-43
2022/05/02 01:32:29;;;;;;;13.20;8.00;;;22.20;56.00;;;;;;215305;1296;22690;-44
2022/05/02 01:37:33;;;;;;;14.00;8.20;;;22.20;56.00;;;;;;215389;1296;22576;-45
2022/05/02 01:42:40;;;;;;;14.10;8.00;;;22.20;56.20;;;;;;215433;1296;22586;-44
2022/05/02 01:47:45;;;;;;;13.40;7.50;;;22.20;56.00;;;;;;215378;1296;26940;-41
2022/05/02 01:52:50;;;;;;;11.40;7.80;;;22.20;55.80;;;;;;215102;1295;22577;-43
2022/05/02 01:57:54;;;;;;;13.10;8.20;;;22.10;56.10;;;;;;215379;1296;24424;-42
2022/05/02 02:02:57;;;;;;;12.80;8.20;;;22.20;56.40;;;;;;215268;1296;22585;-42
2022/05/02 02:08:05;;;;;;;11.90;7.50;;;22.10;56.10;;;;;;215136;1296;24375;-44
2022/05/02 02:13:18;;;;;;;11.40;7.10;;;22.10;56.10;;;;;;215555;1296;22605;-45
2022/05/02 02:18:27;;;;;;;13.20;8.20;;;22.10;56.10;;;;;;215561;1294;22739;-44
2022/05/02 02:23:39;;;;;;;12.30;7.50;;;22.00;56.00;;;;;;215516;1293;22991;-44
2022/05/02 02:28:43;;;;;;;12.10;7.80;;;22.00;56.00;;;;;;215726;1293;25263;-43
2022/05/02 02:33:46;;;;;;;11.90;6.80;;;22.00;56.00;;;;;;215425;1294;22649;-43
2022/05/02 02:38:50;;;;;;;12.90;6.80;;;22.10;55.80;;;;;;215142;1296;22621;-45
2022/05/02 02:43:54;;;;;;;12.60;7.20;;;22.40;55.40;;;;;;215682;1293;24259;-43
2022/05/02 02:48:58;;;;;;;12.80;6.50;;;22.70;54.70;;;;;;215979;1293;24377;-44
2022/05/02 02:54:01;;;;;;;11.70;6.90;;;23.00;53.80;;;;;;215928;1292;25478;-44
2022/05/02 02:59:05;;;;;;;10.00;6.70;;;23.20;53.30;;;;;;215597;1293;22984;-42
2022/05/02 03:09:31;;;;;;;10.30;6.20;;;23.40;52.80;;;;;;215698;1293;24436;-45
2022/05/02 03:14:35;;;;;;;9.30;5.90;;;23.50;52.30;;;;;;215199;1296;25352;-43
2022/05/02 03:19:42;;;;;;;10.00;6.10;;;23.60;52.60;;;;;;215746;1293;25618;-44
2022/05/02 03:24:47;;;;;;;10.00;6.80;;;23.60;51.70;;;;;;215866;1293;23407;-44
2022/05/02 03:29:52;;;;;;;10.70;6.90;;;23.60;51.80;;;;;;215640;1293;22624;-45
2022/05/02 03:34:56;;;;;;;10.10;6.50;;;23.60;51.80;;;;;;215470;1296;22778;-44
2022/05/02 03:40:02;;;;;;;9.80;6.50;;;23.60;51.90;;;;;;215587;1293;24302;-45
2022/05/02 03:45:07;;;;;;;9.30;6.10;;;23.50;52.00;;;;;;215960;1293;22582;-42
2022/05/02 03:50:12;;;;;;;10.30;6.10;;;23.40;52.20;;;;;;215751;1293;23830;-45
2022/05/02 03:55:16;;;;;;;11.60;6.00;;;23.30;52.70;;;;;;215538;1293;24275;-43
2022/05/02 04:00:19;;;;;;;10.10;5.80;;;23.30;52.50;;;;;;215610;1293;24453;-47
2022/05/02 04:05:27;;;;;;;10.20;5.50;;;23.20;52.60;;;;;;215834;1293;26431;-45
2022/05/02 04:10:31;;;;;;;10.70;6.60;;;23.10;53.30;;;;;;215732;1293;22573;-43
2022/05/02 04:15:35;;;;;;;9.20;5.70;;;23.00;53.20;;;;;;215652;1293;24322;-45
2022/05/02 04:20:39;;;;;;;9.10;5.70;;;23.00;53.50;;;;;;215980;1293;22683;-42
2022/05/02 04:25:43;;;;;;;11.60;6.50;;;23.00;53.70;;;;;;215264;1296;22564;-43
2022/05/02 04:30:46;;;;;;;10.70;6.40;;;22.90;53.50;;;;;;215618;1295;22844;-44
2022/05/02 04:35:50;;;;;;;9.10;6.10;;;22.90;53.60;;;;;;215144;1296;26368;-45
2022/05/02 04:40:53;;;;;;;10.70;6.00;;;22.90;54.10;;;;;;215128;1296;22794;-43
2022/05/02 04:45:57;;;;;;;9.70;5.80;;;22.80;53.70;;;;;;215076;1294;26337;-43
2022/05/02 04:51:01;;;;;;;10.10;5.50;;;22.70;54.00;;;;;;215101;1296;23765;-43
2022/05/02 04:56:05;;;;;;;9.50;6.00;;;22.70;53.80;;;;;;215420;1296;22571;-43
2022/05/02 05:01:08;;;;;;;10.00;6.00;;;22.70;54.00;;;;;;215372;1296;25844;-43
2022/05/02 05:06:12;;;;;;;8.30;5.30;;;22.60;54.30;;;;;;215345;1296;25315;-44
2022/05/02 05:11:57;;;;;;;7.90;5.50;;;22.60;54.00;;;;;;215236;1296;25722;-42
2022/05/02 05:17:16;;;;;;;8.10;5.50;;;22.60;54.20;;;;;;214480;1296;25407;-43
2022/05/02 05:23:04;;;;;;;8.60;5.60;;;22.50;54.20;;;;;;215263;1296;24160;-43
2022/05/02 05:28:34;;;;;;;8.90;5.30;;;22.50;54.50;;;;;;215575;1293;24207;-43
2022/05/02 05:34:02;;;;;;;8.00;5.10;;;22.50;54.30;;;;;;215481;1293;22860;-44
2022/05/02 05:39:19;;;;;;;9.00;5.70;;;22.50;54.40;;;;;;215776;1293;25268;-43
2022/05/02 05:44:41;;;;;;;10.30;4.70;;;22.50;54.30;;;;;;215955;1293;24315;-43
2022/05/02 05:49:55;;;;;;;9.60;5.60;;;22.50;54.40;;;;;;215882;1293;22599;-42
2022/05/02 05:54:58;;;;;;;9.00;5.40;;;22.50;54.30;;;;;;215217;1293;22563;-43
2022/05/02 06:00:05;;;;;;;7.90;5.10;;;22.50;55.00;;;;;;215460;1293;23705;-44
2022/05/02 06:05:09;;;;;;;7.70;5.10;;;22.50;54.50;;;;;;215511;1292;23010;-45
2022/05/02 06:10:19;;;;;;;9.00;5.30;;;22.40;54.20;;;;;;215587;1293;25335;-44
2022/05/02 06:20:52;;;;;;;7.40;5.50;;;22.40;54.10;;;;;;215512;1296;24333;-44
2022/05/02 06:25:57;;;;;;;7.20;4.50;;;22.40;54.20;;;;;;215803;1293;26304;-43
2022/05/02 06:31:04;;;;;;;7.20;4.60;;;22.40;54.30;;;;;;215834;1293;24297;-44
2022/05/02 06:36:35;;;;;;;7.40;5.10;;;22.40;54.20;;;;;;215438;1293;22521;-43
2022/05/02 06:42:19;;;;;;;9.80;4.70;;;22.40;54.20;;;;;;215653;1293;22547;-43
2022/05/02 06:47:54;;;;;;;8.50;4.70;;;22.40;54.30;;;;;;215619;1293;23861;-44
2022/05/02 06:53:00;;;;;;;6.70;4.70;;;22.40;54.80;;;;;;215746;1293;22564;-44
2022/05/02 06:58:16;;;;;;;6.60;4.30;;;22.40;54.50;;;;;;215587;1294;23626;-44
2022/05/02 07:03:20;;;;;;;9.30;5.30;;;22.40;54.40;;;;;;215592;1293;22616;-44
2022/05/02 07:08:56;;;;;;;7.60;5.00;;;22.40;54.50;;;;;;215580;1296;24256;-44
2022/05/02 07:14:29;;;;;;;8.50;4.80;;;22.40;54.80;;;;;;215557;1296;22825;-43
2022/05/02 07:20:02;;;;;;;7.00;4.60;;;22.40;54.60;;;;;;215524;1293;24412;-43
2022/05/02 07:25:13;;;;;;;11.20;4.70;;;22.40;54.50;;;;;;215073;1296;25540;-45
2022/05/02 07:30:23;;;;;;;7.80;4.30;;;22.40;55.60;;;;;;215540;1296;25267;-44
2022/05/02 07:35:27;;;;;;;7.50;4.70;;;22.40;55.80;;;;;;215261;1296;22586;-44
2022/05/02 07:40:33;;;;;;;10.00;4.50;;;22.50;55.70;;;;;;215316;1296;24451;-44
2022/05/02 07:45:37;;;;;;;26.50;5.40;;;22.50;55.80;;;;;;215673;1296;24141;-44
2022/05/02 07:50:43;;;;;;;21.00;5.30;;;22.50;57.50;;;;;;215708;1296;22585;-46
2022/05/02 07:55:49;;;;;;;15.20;4.70;;;22.60;56.80;;;;;;215555;1296;22741;-45
2022/05/02 08:00:53;;;;;;;22.60;5.10;;;22.70;56.80;;;;;;215277;1294;24465;-43
2022/05/02 08:06:11;;;;;;;19.00;5.20;;;22.70;56.90;;;;;;215340;1294;25410;-46
2022/05/02 08:11:33;;;;;;;15.40;4.40;;;22.80;57.30;;;;;;214947;1296;25354;-44
2022/05/02 08:16:42;;;;;;;14.80;4.80;;;22.80;57.20;;;;;;215230;1296;24284;-43
2022/05/02 08:27:58;;;;;;;19.10;4.90;;;22.80;58.70;;;;;;215432;1293;22727;-43
2022/05/02 08:33:07;;;;;;;13.00;5.20;;;22.90;59.20;;;;;;215070;1296;23046;-45
2022/05/02 08:38:32;;;;;;;13.90;4.60;;;22.90;58.60;;;;;;215832;1293;22643;-44
2022/05/02 08:43:55;;;;;;;14.10;4.80;;;23.00;58.50;;;;;;215476;1293;25674;-43
2022/05/02 08:49:37;;;;;;;7.90;4.50;;;23.00;58.50;;;;;;215526;1293;22744;-45
2022/05/02 08:55:16;;;;;;;12.90;4.90;;;23.00;58.30;;;;;;215445;1294;22839;-47
2022/05/02 09:00:57;;;;;;;13.40;4.80;;;23.00;58.10;;;;;;215097;1293;25505;-46
2022/05/02 09:06:13;;;;;;;9.70;4.30;;;23.00;58.30;;;;;;214756;1293;22665;-47
2022/05/02 09:11:52;;;;;;;9.30;4.30;;;23.10;57.90;;;;;;222873;1293;22194;-48
2022/05/02 09:17:18;;;;;;;12.00;4.30;;;23.20;57.60;;;;;;222324;1294;22463;-42
2022/05/02 09:22:39;;;;;;;8.70;4.80;;;23.20;57.20;;;;;;222870;1294;22367;-42
2022/05/02 09:27:52;;;;;;;12.80;4.20;;;23.30;57.00;;;;;;222899;1293;22386;-43
2022/05/02 09:32:59;;;;;;;12.10;5.10;;;23.30;57.30;;;;;;222839;1293;22329;-46
2022/05/02 09:38:29;;;;;;;10.70;4.00;;;23.30;57.00;;;;;;222912;1292;22213;-47
2022/05/02 09:50:15;;;;;;;8.80;4.40;;;23.40;57.10;;;;;;222894;1293;22383;-46
2022/05/02 10:01:21;;;;;;;15.10;5.90;;;23.60;56.80;;;;;;215842;1296;22596;-43
2022/05/02 10:06:53;;;;;;;26.40;5.20;;;23.60;56.00;;;;;;215623;1293;25547;-43
2022/05/02 10:12:10;;;;;;;16.60;6.20;;;23.60;56.70;;;;;;215282;1294;22752;-42
2022/05/02 10:17:20;;;;;;;10.90;4.40;;;23.60;55.70;;;;;;215715;1296;22599;-42
2022/05/02 10:22:51;;;;;;;13.00;5.00;;;23.70;55.20;;;;;;216003;1293;24435;-43
2022/05/02 10:28:08;;;;;;;16.40;5.60;;;23.60;55.00;;;;;;216002;1296;25343;-42
2022/05/02 10:33:20;;;;;;;21.20;6.70;;;23.60;55.60;;;;;;215802;1296;25508;-42
2022/05/02 10:38:29;;;;;;;13.30;6.00;;;23.70;58.00;;;;;;215776;1293;25506;-43
2022/05/02 10:43:36;;;;;;;14.90;5.70;;;23.70;57.70;;;;;;215986;1296;22591;-44
2022/05/02 10:49:30;;;;;;;16.00;5.90;;;23.70;56.60;;;;;;215969;1296;22564;-43
2022/05/02 10:55:02;;;;;;;14.00;5.90;;;23.70;56.00;;;;;;215283;1297;22646;-43
2022/05/02 11:00:12;;;;;;;14.60;6.50;;;23.70;55.80;;;;;;215656;1294;25579;-42
2022/05/02 11:05:22;;;;;;;10.80;5.10;;;23.80;55.50;;;;;;215524;1293;23935;-44
2022/05/02 11:10:39;;;;;;;13.10;5.60;;;23.90;55.30;;;;;;215856;1294;22835;-44
2022/05/02 11:16:07;;;;;;;15.80;5.20;;;23.90;54.90;;;;;;215678;1294;25525;-42
2022/05/02 11:21:46;;;;;;;13.70;5.80;;;23.90;55.00;;;;;;215861;1294;22805;-44
2022/05/02 11:27:14;;;;;;;8.80;4.60;;;23.90;54.40;;;;;;216049;1293;22614;-43
2022/05/02 11:32:37;;;;;;;13.50;5.30;;;23.90;54.30;;;;;;215959;1296;24267;-48
2022/05/02 11:37:53;;;;;;;11.10;4.90;;;23.90;54.10;;;;;;215634;1297;22561;-43
2022/05/02 11:42:58;;;;;;;12.20;4.90;;;23.90;54.00;;;;;;215871;1294;24440;-44
2022/05/02 11:48:14;;;;;;;11.10;5.00;;;23.90;53.60;;;;;;215847;1294;23890;-44
2022/05/02 11:53:19;;;;;;;10.70;5.10;;;23.90;53.70;;;;;;215820;1293;24267;-42
2022/05/02 11:58:24;;;;;;;8.50;4.90;;;23.90;53.70;;;;;;215929;1293;22688;-45
2022/05/02 12:03:40;;;;;;;9.70;5.10;;;24.00;53.30;;;;;;215800;1293;22558;-44
2022/05/02 12:08:48;;;;;;;7.30;4.50;;;24.00;53.00;;;;;;215604;1293;22582;-43
2022/05/02 12:13:53;;;;;;;10.00;4.90;;;24.00;52.80;;;;;;215750;1293;22602;-41
2022/05/02 12:18:57;;;;;;;11.70;5.50;;;24.00;52.60;;;;;;215580;1293;22600;-43
2022/05/02 12:24:04;;;;;;;9.80;4.60;;;24.10;52.50;;;;;;215775;1296;24262;-43
2022/05/02 12:29:17;;;;;;;8.80;4.70;;;24.00;52.20;;;;;;215974;1293;22587;-43
2022/05/02 12:34:40;;;;;;;10.80;5.00;;;24.10;52.10;;;;;;215882;1296;22566;-43
2022/05/02 12:39:49;;;;;;;9.10;4.60;;;24.10;52.10;;;;;;216047;1294;22703;-43
2022/05/02 12:45:03;;;;;;;11.50;5.20;;;24.10;51.90;;;;;;215997;1293;22619;-45
2022/05/02 12:50:21;;;;;;;9.30;4.80;;;24.10;52.40;;;;;;215752;1293;23533;-44
2022/05/02 12:55:31;;;;;;;8.80;4.60;;;24.10;51.70;;;;;;215791;1293;22591;-44
2022/05/02 13:00:39;;;;;;;7.60;4.10;;;24.10;51.40;;;;;;215612;1293;25349;-43
2022/05/02 13:05:45;;;;;;;9.00;4.30;;;24.10;52.10;;;;;;215618;1293;22732;-44
2022/05/02 13:11:12;;;;;;;6.50;4.20;;;24.10;51.40;;;;;;215494;1293;26272;-43
2022/05/02 13:16:30;;;;;;;7.70;4.30;;;24.10;51.40;;;;;;216009;1294;24793;-43
2022/05/02 13:21:34;;;;;;;7.30;4.60;;;24.10;51.30;;;;;;215582;1293;22656;-43
2022/05/02 13:27:21;;;;;;;9.30;4.50;;;24.10;51.20;;;;;;216123;1294;23933;-44
2022/05/02 13:32:33;;;;;;;6.30;4.10;;;24.10;51.50;;;;;;215825;1293;24157;-46
2022/05/02 13:38:01;;;;;;;8.40;4.60;;;24.10;51.30;;;;;;215715;1293;24402;-44
2022/05/02 13:43:51;;;;;;;9.30;4.40;;;24.10;51.00;;;;;;215738;1293;24410;-44
2022/05/02 13:49:03;;;;;;;6.70;4.50;;;24.10;51.00;;;;;;215730;1293;22645;-44
2022/05/02 13:54:33;;;;;;;7.10;4.50;;;24.10;51.10;;;;;;215602;1293;26785;-47
2022/05/02 14:00:26;;;;;;;7.20;3.80;;;24.10;50.50;;;;;;215519;1293;24406;-49
2022/05/02 14:05:42;;;;;;;7.00;4.20;;;24.10;50.80;;;;;;215787;1293;22628;-44
2022/05/02 14:10:53;;;;;;;;;;;24.10;50.80;;;;;;215823;1293;25298;-44
2022/05/02 14:16:05;;;;;;;8.00;4.00;;;24.10;51.40;;;;;;215694;1293;25390;-43
2022/05/02 14:21:10;;;;;;;8.00;4.00;;;24.10;51.00;;;;;;216102;1293;25356;-43
2022/05/02 14:26:17;;;;;;;7.50;4.00;;;24.10;50.70;;;;;;215914;1293;23063;-44
2022/05/02 14:31:34;;;;;;;7.50;4.20;;;24.10;50.60;;;;;;216020;1293;24389;-42
2022/05/02 14:36:41;;;;;;;7.30;3.90;;;24.10;50.50;;;;;;216070;1293;22596;-44
2022/05/02 14:41:45;;;;;;;6.40;4.20;;;24.10;50.60;;;;;;215971;1293;22591;-45
2022/05/02 14:46:49;;;;;;;8.90;4.40;;;24.10;50.30;;;;;;216004;1293;24001;-41
2022/05/02 14:51:58;;;;;;;6.60;3.60;;;24.10;50.60;;;;;;215923;1294;23975;-42
2022/05/02 14:57:05;;;;;;;5.60;3.70;;;24.10;50.30;;;;;;215650;1293;22693;-43
2022/05/02 15:02:10;;;;;;;6.60;3.90;;;24.10;50.20;;;;;;216023;1293;24314;-44
2022/05/02 15:07:20;;;;;;;6.80;4.20;;;24.00;50.10;;;;;;215698;1293;22563;-43
2022/05/02 15:12:38;;;;;;;6.30;4.00;;;24.10;50.00;;;;;;215862;1294;24110;-46
2022/05/02 15:17:59;;;;;;;6.80;4.10;;;24.00;50.40;;;;;;215653;1293;22586;-43
2022/05/02 15:23:07;;;;;;;5.30;3.70;;;24.00;50.00;;;;;;215627;1294;23991;-43
2022/05/02 15:39:19;;;;;;;6.90;4.30;;;24.00;49.70;;;;;;215478;1296;22589;-42
2022/05/02 15:44:42;;;;;;;4.80;3.80;;;24.00;49.80;;;;;;215475;1294;22573;-43
2022/05/02 15:50:02;;;;;;;7.90;3.60;;;24.00;49.80;;;;;;215407;1294;24308;-44
2022/05/02 15:55:13;;;;;;;6.90;3.80;;;24.00;49.90;;;;;;215565;1296;22586;-42
2022/05/02 16:00:31;;;;;;;5.50;3.80;;;24.00;50.00;;;;;;215810;1296;25579;-42
2022/05/02 16:06:05;;;;;;;5.70;3.90;;;24.00;49.60;;;;;;215444;1296;22566;-43
2022/05/02 16:11:09;;;;;;;;;;;23.90;49.10;;;;;;215228;1296;22608;-43
2022/05/02 16:16:20;;;;;;;5.00;3.60;;;23.90;48.90;;;;;;215224;1296;25330;-44
2022/05/02 16:21:27;;;;;;;5.90;3.60;;;23.90;48.40;;;;;;215275;1294;535043;-43
2022/05/02 16:26:30;;;;;;;6.10;3.50;;;23.90;48.50;;;;;;215689;1293;23501;-44
2022/05/02 16:31:34;;;;;;;5.40;3.50;;;23.90;48.50;;;;;;215794;1293;25387;-44
2022/05/02 16:36:41;;;;;;;5.10;3.70;;;23.90;48.50;;;;;;215838;1293;25368;-43
2022/05/02 16:41:46;;;;;;;5.20;3.90;;;23.90;48.90;;;;;;215777;1293;22590;-45
2022/05/02 16:47:06;;;;;;;6.70;3.90;;;23.90;48.90;;;;;;215331;1296;23989;-43
2022/05/02 16:52:10;;;;;;;6.00;4.00;;;23.80;48.80;;;;;;215828;1293;25288;-42
2022/05/02 16:57:15;;;;;;;5.90;3.80;;;23.80;47.90;;;;;;215466;1295;24289;-43
2022/05/02 17:02:20;;;;;;;6.80;4.40;;;23.80;48.40;;;;;;215689;1293;24330;-42
2022/05/02 17:07:37;;;;;;;4.80;3.50;;;23.80;47.90;;;;;;215570;1296;22710;-43
2022/05/02 17:12:46;;;;;;;5.60;3.80;;;23.80;48.40;;;;;;216043;1293;25276;-44
2022/05/02 17:17:52;;;;;;;6.00;4.00;;;23.80;48.00;;;;;;215946;1293;25388;-43
2022/05/02 17:23:16;;;;;;;6.40;3.90;;;23.70;48.30;;;;;;215889;1293;22669;-44
2022/05/02 17:28:26;;;;;;;5.40;4.10;;;23.70;48.40;;;;;;215392;1296;23032;-42
2022/05/02 17:33:47;;;;;;;6.50;4.40;;;23.70;48.10;;;;;;215830;1293;26229;-42
2022/05/02 17:38:52;;;;;;;;;;;23.70;48.00;;;;;;215864;1293;25462;-43
2022/05/02 17:43:56;;;;;;;6.10;4.10;;;23.70;47.90;;;;;;215840;1293;25289;-43
2022/05/02 17:49:07;;;;;;;5.10;3.80;;;23.70;47.90;;;;;;215594;1293;24345;-42
2022/05/02 17:54:15;;;;;;;5.10;4.00;;;23.70;47.60;;;;;;215800;1293;22577;-43
2022/05/02 17:59:25;;;;;;;5.00;4.10;;;23.70;47.50;;;;;;215427;1293;22579;-44
2022/05/02 18:04:29;;;;;;;5.30;3.60;;;23.70;48.00;;;;;;215736;1293;25434;-42
2022/05/02 18:09:36;;;;;;;4.60;3.40;;;23.60;47.10;;;;;;215557;1293;24349;-42
2022/05/02 18:14:42;;;;;;;5.60;4.20;;;23.60;47.20;;;;;;215890;1293;24327;-43
2022/05/02 18:20:12;;;;;;;6.60;4.40;;;23.60;47.20;;;;;;215962;1293;22692;-45
2022/05/02 18:25:20;;;;;;;6.00;4.30;;;23.60;47.40;;;;;;215765;1293;22560;-43
2022/05/02 18:30:29;;;;;;;6.10;4.30;;;23.60;47.30;;;;;;215305;1293;24379;-43
2022/05/02 18:35:51;;;;;;;5.20;4.00;;;23.60;47.20;;;;;;215666;1293;22583;-43
2022/05/02 18:40:58;;;;;;;6.20;4.40;;;23.50;47.20;;;;;;215299;1293;22586;-43
2022/05/02 18:57:13;;;;;;;6.80;4.70;;;23.40;47.10;;;;;;215832;1293;22872;-41
2022/05/02 19:02:18;;;;;;;6.40;4.70;;;23.50;47.40;;;;;;215980;1293;25581;-43
2022/05/02 19:07:26;;;;;;;6.20;4.70;;;23.40;47.30;;;;;;215423;1293;22579;-43
2022/05/02 19:12:36;;;;;;;7.00;5.10;;;23.40;47.10;;;;;;215815;1293;24369;-42
2022/05/02 19:17:50;;;;;;;7.40;5.10;;;23.40;47.20;;;;;;215588;1293;24242;-44
2022/05/02 19:23:07;;;;;;;7.50;5.20;;;23.40;47.10;;;;;;215298;1293;22591;-42
2022/05/02 19:28:27;;;;;;;6.80;5.60;;;23.30;47.00;;;;;;215068;1296;23075;-41
2022/05/02 19:33:35;;;;;;;8.20;4.90;;;23.30;47.40;;;;;;215706;1296;23521;-42
2022/05/02 19:39:08;;;;;;;11.90;5.50;;;23.30;47.20;;;;;;215376;1296;25589;-43
2022/05/02 19:44:34;;;;;;;15.20;5.80;;;23.30;47.40;;;;;;215022;1296;25373;-43
2022/05/02 19:49:45;;;;;;;9.20;4.90;;;23.40;47.40;;;;;;215268;1296;22592;-45
2022/05/02 19:54:56;;;;;;;11.20;6.20;;;23.40;47.20;;;;;;215405;1296;25729;-42
2022/05/02 20:00:05;;;;;;;11.90;6.70;;;23.30;47.20;;;;;;215394;1296;22587;-43
2022/05/02 20:05:13;;;;;;;15.20;6.30;;;23.30;48.30;;;;;;215591;1296;22567;-46
2022/05/02 20:10:18;;;;;;;10.30;6.40;;;23.30;49.00;;;;;;215518;1296;25736;-45
2022/05/02 20:15:22;;;;;;;15.70;6.50;;;23.30;49.30;;;;;;215509;1296;22602;-44
2022/05/02 20:20:26;;;;;;;24.70;7.50;;;23.30;49.60;;;;;;215420;1296;25404;-43
2022/05/02 20:25:30;;;;;;;77.70;18.70;;;23.30;50.30;;;;;;215352;1293;24602;-44
2022/05/02 20:30:38;;;;;;;101.20;23.00;;;23.30;50.50;;;;;;215383;1293;22741;-44
2022/05/02 20:41:41;;;;;;;63.50;15.70;;;23.30;52.90;;;;;;215525;1293;24338;-45
2022/05/02 20:46:53;;;;;;;63.90;14.90;;;23.30;52.60;;;;;;215175;1293;24229;-42
2022/05/02 20:51:57;;;;;;;50.00;14.80;;;23.30;53.30;;;;;;215432;1293;22725;-43
2022/05/02 20:57:02;;;;;;;46.60;14.40;;;23.30;55.70;;;;;;215938;1293;25350;-43
2022/05/02 21:02:06;;;;;;;44.90;13.30;;;23.20;55.40;;;;;;215806;1293;22736;-44
2022/05/02 21:07:10;;;;;;;48.70;13.10;;;23.10;56.10;;;;;;215052;1293;24373;-43
2022/05/02 21:12:34;;;;;;;42.50;13.10;;;23.20;56.00;;;;;;216089;1293;22711;-43
2022/05/02 21:18:05;;;;;;;40.10;14.10;;;23.20;56.80;;;;;;215439;1293;26509;-44
2022/05/02 21:23:24;;;;;;;35.80;13.20;;;23.20;58.00;;;;;;215480;1293;22645;-43
2022/05/02 21:29:07;;;;;;;38.60;14.00;;;23.20;57.70;;;;;;215757;1293;24327;-44
2022/05/02 21:34:31;;;;;;;34.80;12.60;;;23.10;57.80;;;;;;215573;1293;25399;-42
2022/05/02 21:39:44;;;;;;;40.10;12.70;;;23.10;58.40;;;;;;215506;1293;26696;-43
2022/05/02 21:44:53;;;;;;;29.40;12.00;;;23.10;57.70;;;;;;215005;1296;24268;-44
2022/05/02 21:50:05;;;;;;;32.50;11.70;;;23.10;58.40;;;;;;215795;1293;22832;-44
2022/05/02 21:55:13;;;;;;;28.30;11.10;;;23.00;58.80;;;;;;215415;1296;22645;-42
2022/05/02 22:00:22;;;;;;;36.80;12.30;;;23.10;59.10;;;;;;215544;1293;25523;-44
2022/05/02 22:05:30;;;;;;;34.30;12.90;;;23.00;59.30;;;;;;215727;1293;22563;-44
2022/05/02 22:10:34;;;;;;;28.10;11.60;;;23.00;59.20;;;;;;215631;1293;22561;-43
2022/05/02 22:15:40;;;;;;;27.80;11.30;;;23.00;59.30;;;;;;215968;1293;22645;-44
2022/05/02 22:20:46;;;;;;;29.00;11.60;;;23.00;59.70;;;;;;215306;1293;24315;-42
2022/05/02 22:25:57;;;;;;;26.10;11.00;;;23.00;59.60;;;;;;215337;1296;25638;-44
2022/05/02 22:31:04;;;;;;;26.60;11.20;;;22.90;60.70;;;;;;215784;1293;22637;-44
2022/05/02 22:36:20;;;;;;;27.50;12.30;;;22.90;60.20;;;;;;215467;1293;22810;-45
2022/05/02 22:41:24;;;;;;;31.80;12.20;;;22.90;60.20;;;;;;215756;1293;24052;-42
2022/05/02 22:46:31;;;;;;;27.90;11.40;;;22.90;60.10;;;;;;215251;1296;23997;-44
2022/05/02 22:51:35;;;;;;;29.00;11.00;;;22.90;60.40;;;;;;215326;1296;22599;-42
2022/05/02 22:56:52;;;;;;;24.60;10.50;;;22.90;60.10;;;;;;215453;1293;23882;-42
2022/05/02 23:02:07;;;;;;;26.60;11.00;;;22.80;60.20;;;;;;215691;1293;23984;-44
2022/05/02 23:07:18;;;;;;;23.10;10.60;;;22.80;60.50;;;;;;215439;1293;22611;-43
2022/05/02 23:12:23;;;;;;;24.60;11.20;;;22.80;60.30;;;;;;215208;1293;25522;-43
2022/05/02 23:17:31;;;;;;;24.20;10.30;;;22.80;60.20;;;;;;215500;1293;24394;-46
2022/05/02 23:22:39;;;;;;;22.70;11.00;;;22.80;60.50;;;;;;215642;1293;25840;-48
2022/05/02 23:27:43;;;;;;;24.20;10.50;;;22.70;60.40;;;;;;215670;1294;24246;-42
2022/05/02 23:32:54;;;;;;;23.70;10.00;;;22.80;60.50;;;;;;215279;1293;22564;-43
2022/05/02 23:38:27;;;;;;;23.40;9.60;;;22.70;60.60;;;;;;216718;1293;22557;-43
2022/05/02 23:43:39;;;;;;;23.90;11.20;;;22.80;60.50;;;;;;215343;1296;24419;-45
2022/05/02 23:49:11;;;;;;;22.90;11.00;;;22.70;62.00;;;;;;215648;1293;25342;-42
2022/05/02 23:54:29;;;;;;;21.40;9.90;;;22.70;62.10;;;;;;215818;1293;25248;-42
2022/05/02 23:59:51;;;;;;;21.50;10.40;;;22.70;61.70;;;;;;215686;1293;24310;-43
